sensor_id;sensor_type;location;lat;lon;timestamp;pressure;altitude;pressure_sealevel;temperature;humidity
34103;BME280;20381;54.498;18.206;2023-04-27T00:01:48;99474.26;;;2.05;68.25
34103;BME280;20381;54.498;18.206;2023-04-27T00:04:14;99477.23;;;2.06;67.70
34103;BME280;20381;54.498;18.206;2023-04-27T00:06:41;99470.85;;;2.03;67.62
34103;BME280;20381;54.498;18.206;2023-04-27T00:09:08;99464.88;;;2.00;67.75
34103;BME280;20381;54.498;18.206;2023-04-27T00:11:34;99473.48;;;1.99;68.13
34103;BME280;20381;54.498;18.206;2023-04-27T00:14:00;99475.16;;;2.02;68.69
34103;BME280;20381;54.498;18.206;2023-04-27T00:16:27;99478.58;;;2.03;68.00
34103;BME280;20381;54.498;18.206;2023-04-27T00:18:53;99478.14;;;2.01;68.81
34103;BME280;20381;54.498;18.206;2023-04-27T00:21:20;99472.19;;;1.99;68.18
34103;BME280;20381;54.498;18.206;2023-04-27T00:23:46;99480.36;;;1.99;68.44
34103;BME280;20381;54.498;18.206;2023-04-27T00:26:13;99482.01;;;2.01;68.95
34103;BME280;20381;54.498;18.206;2023-04-27T00:28:39;99474.26;;;2.05;68.60
34103;BME280;20381;54.498;18.206;2023-04-27T00:31:05;99479.09;;;1.97;68.22
34103;BME280;20381;54.498;18.206;2023-04-27T00:33:31;99480.48;;;1.91;68.56
34103;BME280;20381;54.498;18.206;2023-04-27T00:36:01;99479.59;;;1.92;69.10
34103;BME280;20381;54.498;18.206;2023-04-27T00:38:28;99471.92;;;1.89;68.76
34103;BME280;20381;54.498;18.206;2023-04-27T00:41:06;99473.25;;;1.86;69.01
34103;BME280;20381;54.498;18.206;2023-04-27T00:43:29;99483.16;;;1.85;68.89
34103;BME280;20381;54.498;18.206;2023-04-27T00:45:56;99484.01;;;1.84;68.79
34103;BME280;20381;54.498;18.206;2023-04-27T00:48:23;99484.44;;;1.85;68.97
34103;BME280;20381;54.498;18.206;2023-04-27T00:50:50;99476.27;;;1.86;69.11
34103;BME280;20381;54.498;18.206;2023-04-27T00:53:17;99479.75;;;1.83;68.95
34103;BME280;20381;54.498;18.206;2023-04-27T00:55:43;99484.01;;;1.84;69.45
34103;BME280;20381;54.498;18.206;2023-04-27T00:58:10;99480.53;;;1.88;69.45
34103;BME280;20381;54.498;18.206;2023-04-27T01:00:36;99484.84;;;1.86;69.40
34103;BME280;20381;54.498;18.206;2023-04-27T01:03:04;99483.95;;;1.87;69.58
34103;BME280;20381;54.498;18.206;2023-04-27T01:05:30;99483.05;;;1.91;69.81
34103;BME280;20381;54.498;18.206;2023-04-27T01:07:57;99481.32;;;1.92;69.66
34103;BME280;20381;54.498;18.206;2023-04-27T01:10:23;99487.31;;;1.92;69.76
34103;BME280;20381;54.498;18.206;2023-04-27T01:12:49;99485.58;;;1.94;69.97
34103;BME280;20381;54.498;18.206;2023-04-27T01:15:16;99484.69;;;1.95;69.83
34103;BME280;20381;54.498;18.206;2023-04-27T01:17:42;99486.48;;;1.90;70.11
34103;BME280;20381;54.498;18.206;2023-04-27T01:20:09;99482.61;;;1.92;70.46
34103;BME280;20381;54.498;18.206;2023-04-27T01:22:37;99488.60;;;1.92;70.58
34103;BME280;20381;54.498;18.206;2023-04-27T01:25:05;99486.97;;;1.88;69.91
34103;BME280;20381;54.498;18.206;2023-04-27T01:27:33;99486.58;;;1.84;70.88
34103;BME280;20381;54.498;18.206;2023-04-27T01:29:59;99486.53;;;1.87;70.57
34103;BME280;20381;54.498;18.206;2023-04-27T01:32:25;99488.30;;;1.85;70.74
34103;BME280;20381;54.498;18.206;2023-04-27T01:34:52;99487.42;;;1.86;70.22
34103;BME280;20381;54.498;18.206;2023-04-27T01:37:18;99488.36;;;1.82;70.99
34103;BME280;20381;54.498;18.206;2023-04-27T01:39:44;99486.58;;;1.84;70.72
34103;BME280;20381;54.498;18.206;2023-04-27T01:42:10;99487.42;;;1.86;70.92
34103;BME280;20381;54.498;18.206;2023-04-27T01:44:37;99491.72;;;1.86;70.98
34103;BME280;20381;54.498;18.206;2023-04-27T01:47:04;99493.45;;;1.85;71.32
34103;BME280;20381;54.498;18.206;2023-04-27T01:49:30;99493.45;;;1.85;71.89
34103;BME280;20381;54.498;18.206;2023-04-27T01:51:56;99493.02;;;1.84;71.24
34103;BME280;20381;54.498;18.206;2023-04-27T01:54:22;99497.72;;;1.85;71.43
34103;BME280;20381;54.498;18.206;2023-04-27T01:56:49;99499.05;;;1.83;71.19
34103;BME280;20381;54.498;18.206;2023-04-27T01:59:15;99495.64;;;1.81;71.68
34103;BME280;20381;54.498;18.206;2023-04-27T02:01:41;99498.66;;;1.81;71.66
34103;BME280;20381;54.498;18.206;2023-04-27T02:04:08;99495.23;;;1.80;71.89
34103;BME280;20381;54.498;18.206;2023-04-27T02:06:34;99495.23;;;1.80;71.74
34103;BME280;20381;54.498;18.206;2023-04-27T02:09:01;99501.24;;;1.79;71.76
34103;BME280;20381;54.498;18.206;2023-04-27T02:11:27;99502.97;;;1.80;71.86
34103;BME280;20381;54.498;18.206;2023-04-27T02:13:53;99503.80;;;1.82;72.28
34103;BME280;20381;54.498;18.206;2023-04-27T02:16:20;99510.69;;;1.80;71.73
34103;BME280;20381;54.498;18.206;2023-04-27T02:18:46;99507.31;;;1.76;71.98
34103;BME280;20381;54.498;18.206;2023-04-27T02:21:13;99505.59;;;1.77;71.98
34103;BME280;20381;54.498;18.206;2023-04-27T02:23:40;99506.84;;;1.78;72.46
34103;BME280;20381;54.498;18.206;2023-04-27T02:26:06;99500.45;;;1.75;72.34
34103;BME280;20381;54.498;18.206;2023-04-27T02:28:32;99506.09;;;1.72;72.05
34103;BME280;20381;54.498;18.206;2023-04-27T02:30:58;99504.84;;;1.69;72.65
34103;BME280;20381;54.498;18.206;2023-04-27T02:33:25;99498.81;;;1.70;72.74
34103;BME280;20381;54.498;18.206;2023-04-27T02:35:51;99503.56;;;1.69;72.61
34103;BME280;20381;54.498;18.206;2023-04-27T02:38:18;99505.70;;;1.68;72.86
34103;BME280;20381;54.498;18.206;2023-04-27T02:40:44;99504.06;;;1.62;72.30
34103;BME280;20381;54.498;18.206;2023-04-27T02:43:11;99508.47;;;1.55;73.06
34103;BME280;20381;54.498;18.206;2023-04-27T02:45:37;99503.31;;;1.55;72.52
34103;BME280;20381;54.498;18.206;2023-04-27T02:48:04;99505.05;;;1.53;72.58
34103;BME280;20381;54.498;18.206;2023-04-27T02:50:31;99506.81;;;1.51;72.86
34103;BME280;20381;54.498;18.206;2023-04-27T02:52:57;99509.80;;;1.52;73.17
34103;BME280;20381;54.498;18.206;2023-04-27T02:55:26;99512.38;;;1.51;74.16
34103;BME280;20381;54.498;18.206;2023-04-27T02:57:52;99511.13;;;1.49;72.90
34103;BME280;20381;54.498;18.206;2023-04-27T03:00:19;99517.60;;;1.46;73.74
34103;BME280;20381;54.498;18.206;2023-04-27T03:02:45;99525.73;;;1.47;73.25
34103;BME280;20381;54.498;18.206;2023-04-27T03:05:12;99524.08;;;1.43;74.25
34103;BME280;20381;54.498;18.206;2023-04-27T03:07:38;99527.89;;;1.46;74.36
34103;BME280;20381;54.498;18.206;2023-04-27T03:10:05;99524.84;;;1.50;74.22
34103;BME280;20381;54.498;18.206;2023-04-27T03:12:31;99526.08;;;1.54;74.67
34103;BME280;20381;54.498;18.206;2023-04-27T03:14:57;99527.31;;;1.58;74.36
34103;BME280;20381;54.498;18.206;2023-04-27T03:17:24;99527.27;;;1.61;74.30
34103;BME280;20381;54.498;18.206;2023-04-27T03:19:51;99529.84;;;1.61;74.07
34103;BME280;20381;54.498;18.206;2023-04-27T03:22:17;99536.67;;;1.62;74.10
34103;BME280;20381;54.498;18.206;2023-04-27T03:24:43;99537.56;;;1.61;74.13
34103;BME280;20381;54.498;18.206;2023-04-27T03:27:11;99543.50;;;1.66;74.70
34103;BME280;20381;54.498;18.206;2023-04-27T03:29:37;99537.81;;;1.74;74.95
34103;BME280;20381;54.498;18.206;2023-04-27T03:32:04;99545.44;;;1.80;74.41
34103;BME280;20381;54.498;18.206;2023-04-27T03:34:31;99546.73;;;1.80;74.53
34103;BME280;20381;54.498;18.206;2023-04-27T03:36:57;99543.66;;;1.85;74.88
34103;BME280;20381;54.498;18.206;2023-04-27T03:39:23;99547.38;;;1.94;74.93
34103;BME280;20381;54.498;18.206;2023-04-27T03:41:50;99548.11;;;2.03;75.21
34103;BME280;20381;54.498;18.206;2023-04-27T03:44:16;99551.77;;;2.15;75.28
34103;BME280;20381;54.498;18.206;2023-04-27T03:46:42;99554.62;;;2.25;75.31
34103;BME280;20381;54.498;18.206;2023-04-27T03:49:09;99553.61;;;2.35;75.04
34103;BME280;20381;54.498;18.206;2023-04-27T03:51:35;99547.45;;;2.44;74.91
34103;BME280;20381;54.498;18.206;2023-04-27T03:54:03;99552.50;;;2.49;74.71
34103;BME280;20381;54.498;18.206;2023-04-27T03:56:29;99548.07;;;2.57;75.25
34103;BME280;20381;54.498;18.206;2023-04-27T03:58:55;99553.03;;;2.69;75.59
34103;BME280;20381;54.498;18.206;2023-04-27T04:01:22;99559.25;;;2.80;75.40
34103;BME280;20381;54.498;18.206;2023-04-27T04:03:50;99562.07;;;2.91;75.50
34103;BME280;20381;54.498;18.206;2023-04-27T04:06:16;99559.31;;;3.01;75.57
34103;BME280;20381;54.498;18.206;2023-04-27T04:08:43;99557.38;;;3.12;75.79
34103;BME280;20381;54.498;18.206;2023-04-27T04:11:09;99561.95;;;3.20;75.49
34103;BME280;20381;54.498;18.206;2023-04-27T04:13:35;99564.86;;;3.24;75.54
34103;BME280;20381;54.498;18.206;2023-04-27T04:16:07;99563.05;;;3.29;75.37
34103;BME280;20381;54.498;18.206;2023-04-27T04:18:34;99566.45;;;3.31;75.49
34103;BME280;20381;54.498;18.206;2023-04-27T04:21:01;99567.61;;;3.38;75.63
34103;BME280;20381;54.498;18.206;2023-04-27T04:23:28;99573.47;;;3.46;75.56
34103;BME280;20381;54.498;18.206;2023-04-27T04:25:55;99574.11;;;3.55;75.79
34103;BME280;20381;54.498;18.206;2023-04-27T04:28:22;99570.77;;;3.71;76.29
34103;BME280;20381;54.498;18.206;2023-04-27T04:30:49;99577.30;;;3.88;76.05
34103;BME280;20381;54.498;18.206;2023-04-27T04:33:19;99564.71;;;3.92;76.08
34103;BME280;20381;54.498;18.206;2023-04-27T04:35:46;99578.61;;;4.06;75.92
34103;BME280;20381;54.498;18.206;2023-04-27T04:38:12;99580.50;;;4.17;76.01
34103;BME280;20381;54.498;18.206;2023-04-27T04:40:39;99579.31;;;4.32;75.98
34103;BME280;20381;54.498;18.206;2023-04-27T04:43:07;99590.66;;;4.42;75.76
34103;BME280;20381;54.498;18.206;2023-04-27T04:45:33;99581.78;;;4.54;75.89
34103;BME280;20381;54.498;18.206;2023-04-27T04:48:00;99582.44;;;4.62;75.82
34103;BME280;20381;54.498;18.206;2023-04-27T04:50:26;99575.11;;;4.78;75.94
34103;BME280;20381;54.498;18.206;2023-04-27T04:52:53;99575.20;;;4.91;75.78
34103;BME280;20381;54.498;18.206;2023-04-27T04:55:20;99580.49;;;5.03;75.77
34103;BME280;20381;54.498;18.206;2023-04-27T04:57:46;99580.18;;;5.15;75.73
34103;BME280;20381;54.498;18.206;2023-04-27T05:00:13;99586.84;;;5.24;75.69
34103;BME280;20381;54.498;18.206;2023-04-27T05:02:40;99587.51;;;5.31;75.58
34103;BME280;20381;54.498;18.206;2023-04-27T05:05:07;99595.19;;;5.34;75.63
34103;BME280;20381;54.498;18.206;2023-04-27T05:07:37;99586.37;;;5.41;75.64
34103;BME280;20381;54.498;18.206;2023-04-27T05:10:04;99592.00;;;5.55;75.83
34103;BME280;20381;54.498;18.206;2023-04-27T05:12:30;99591.09;;;5.56;75.34
34103;BME280;20381;54.498;18.206;2023-04-27T05:14:58;99586.09;;;5.50;75.26
34103;BME280;20381;54.498;18.206;2023-04-27T05:17:25;99592.27;;;5.46;75.28
34103;BME280;20381;54.498;18.206;2023-04-27T05:19:52;99594.68;;;5.52;75.51
34103;BME280;20381;54.498;18.206;2023-04-27T05:22:18;99599.34;;;5.54;75.49
34103;BME280;20381;54.498;18.206;2023-04-27T05:24:44;99600.79;;;5.65;75.60
34103;BME280;20381;54.498;18.206;2023-04-27T05:27:17;99606.05;;;5.76;75.58
34103;BME280;20381;54.498;18.206;2023-04-27T05:29:40;99596.28;;;5.86;75.56
34103;BME280;20381;54.498;18.206;2023-04-27T05:32:07;99605.16;;;5.92;75.38
34103;BME280;20381;54.498;18.206;2023-04-27T05:34:34;99604.03;;;6.02;75.48
34103;BME280;20381;54.498;18.206;2023-04-27T05:37:01;99603.16;;;6.17;75.79
34103;BME280;20381;54.498;18.206;2023-04-27T05:39:28;99606.00;;;6.49;75.92
34103;BME280;20381;54.498;18.206;2023-04-27T05:41:54;99610.02;;;6.72;75.58
34103;BME280;20381;54.498;18.206;2023-04-27T05:44:20;99609.55;;;6.86;75.23
34103;BME280;20381;54.498;18.206;2023-04-27T05:46:46;99604.29;;;6.88;74.80
34103;BME280;20381;54.498;18.206;2023-04-27T05:49:13;99614.19;;;6.77;74.25
34103;BME280;20381;54.498;18.206;2023-04-27T05:51:39;99613.37;;;6.75;74.63
34103;BME280;20381;54.498;18.206;2023-04-27T05:54:09;99611.03;;;6.80;74.67
34103;BME280;20381;54.498;18.206;2023-04-27T05:56:35;99612.70;;;6.94;75.19
34103;BME280;20381;54.498;18.206;2023-04-27T05:59:02;99605.67;;;7.23;75.12
34103;BME280;20381;54.498;18.206;2023-04-27T06:01:29;99602.52;;;7.38;74.89
34103;BME280;20381;54.498;18.206;2023-04-27T06:03:55;99599.21;;;7.70;75.79
34103;BME280;20381;54.498;18.206;2023-04-27T06:06:23;99608.31;;;7.92;74.15
34103;BME280;20381;54.498;18.206;2023-04-27T06:08:49;99605.06;;;8.09;74.62
34103;BME280;20381;54.498;18.206;2023-04-27T06:11:15;99607.80;;;8.28;74.41
34103;BME280;20381;54.498;18.206;2023-04-27T06:13:42;99597.54;;;8.47;74.23
34103;BME280;20381;54.498;18.206;2023-04-27T06:16:09;99592.36;;;8.57;74.18
34103;BME280;20381;54.498;18.206;2023-04-27T06:18:35;99583.86;;;8.74;73.75
34103;BME280;20381;54.498;18.206;2023-04-27T06:21:01;99583.39;;;8.74;73.19
34103;BME280;20381;54.498;18.206;2023-04-27T06:23:28;99581.37;;;8.81;73.79
34103;BME280;20381;54.498;18.206;2023-04-27T06:25:54;99585.48;;;8.97;73.57
34103;BME280;20381;54.498;18.206;2023-04-27T06:28:21;99585.92;;;9.17;73.60
34103;BME280;20381;54.498;18.206;2023-04-27T06:30:47;99592.20;;;9.42;74.01
34103;BME280;20381;54.498;18.206;2023-04-27T06:33:17;99595.01;;;9.67;73.25
34103;BME280;20381;54.498;18.206;2023-04-27T06:35:44;99588.58;;;9.74;72.25
34103;BME280;20381;54.498;18.206;2023-04-27T06:38:11;99572.53;;;9.64;72.01
34103;BME280;20381;54.498;18.206;2023-04-27T06:40:37;99572.53;;;9.64;72.01
34103;BME280;20381;54.498;18.206;2023-04-27T06:43:05;99583.22;;;9.39;71.29
34103;BME280;20381;54.498;18.206;2023-04-27T06:45:31;99587.16;;;9.08;71.95
34103;BME280;20381;54.498;18.206;2023-04-27T06:48:00;99591.72;;;9.03;71.79
34103;BME280;20381;54.498;18.206;2023-04-27T06:50:26;99596.02;;;8.84;71.43
34103;BME280;20381;54.498;18.206;2023-04-27T06:52:53;99595.34;;;8.58;71.09
34103;BME280;20381;54.498;18.206;2023-04-27T06:55:20;99603.64;;;8.34;71.05
34103;BME280;20381;54.498;18.206;2023-04-27T06:57:46;99597.27;;;8.09;70.62
34103;BME280;20381;54.498;18.206;2023-04-27T07:00:13;99598.61;;;7.85;70.87
34103;BME280;20381;54.498;18.206;2023-04-27T07:02:39;99608.84;;;7.78;71.05
34103;BME280;20381;54.498;18.206;2023-04-27T07:05:11;99606.58;;;8.37;72.58
34103;BME280;20381;54.498;18.206;2023-04-27T07:07:34;99601.49;;;9.08;73.31
34103;BME280;20381;54.498;18.206;2023-04-27T07:10:01;99587.65;;;10.32;73.76
34103;BME280;20381;54.498;18.206;2023-04-27T07:12:27;99589.73;;;10.94;71.07
34103;BME280;20381;54.498;18.206;2023-04-27T07:14:53;99582.89;;;11.01;69.47
34103;BME280;20381;54.498;18.206;2023-04-27T07:17:20;99586.38;;;11.59;67.85
34103;BME280;20381;54.498;18.206;2023-04-27T07:19:47;99587.57;;;12.09;70.12
34103;BME280;20381;54.498;18.206;2023-04-27T07:22:13;99582.20;;;12.36;68.51
34103;BME280;20381;54.498;18.206;2023-04-27T07:24:41;99592.45;;;12.85;69.52
34103;BME280;20381;54.498;18.206;2023-04-27T07:27:07;99596.16;;;12.66;67.33
34103;BME280;20381;54.498;18.206;2023-04-27T07:29:33;99596.60;;;12.36;67.75
34103;BME280;20381;54.498;18.206;2023-04-27T07:32:00;99602.89;;;11.93;66.35
34103;BME280;20381;54.498;18.206;2023-04-27T07:34:27;99608.12;;;11.43;65.67
34103;BME280;20381;54.498;18.206;2023-04-27T07:36:54;99610.33;;;10.83;65.95
34103;BME280;20381;54.498;18.206;2023-04-27T07:39:20;99616.11;;;10.36;66.13
34103;BME280;20381;54.498;18.206;2023-04-27T07:41:48;99624.00;;;10.07;65.85
34103;BME280;20381;54.498;18.206;2023-04-27T07:44:17;99636.50;;;9.32;66.03
34103;BME280;20381;54.498;18.206;2023-04-27T07:46:44;99636.50;;;9.32;66.03
34103;BME280;20381;54.498;18.206;2023-04-27T07:49:13;99636.90;;;9.12;66.58
34103;BME280;20381;54.498;18.206;2023-04-27T07:51:40;99635.99;;;9.03;66.40
34103;BME280;20381;54.498;18.206;2023-04-27T07:54:07;99632.69;;;9.00;66.67
34103;BME280;20381;54.498;18.206;2023-04-27T07:56:33;99635.86;;;8.86;65.60
34103;BME280;20381;54.498;18.206;2023-04-27T07:58:59;99644.16;;;8.73;65.09
34103;BME280;20381;54.498;18.206;2023-04-27T08:01:26;99641.47;;;8.97;65.94
34103;BME280;20381;54.498;18.206;2023-04-27T08:03:52;99638.96;;;9.55;65.81
34103;BME280;20381;54.498;18.206;2023-04-27T08:06:18;99610.17;;;11.88;66.96
34103;BME280;20381;54.498;18.206;2023-04-27T08:08:45;99610.17;;;11.88;66.96
34103;BME280;20381;54.498;18.206;2023-04-27T08:11:11;99630.58;;;13.49;66.67
34103;BME280;20381;54.498;18.206;2023-04-27T08:13:37;99625.17;;;15.09;66.31
34103;BME280;20381;54.498;18.206;2023-04-27T08:16:05;99617.53;;;16.73;66.77
34103;BME280;20381;54.498;18.206;2023-04-27T08:18:31;99618.30;;;18.29;66.28
34103;BME280;20381;54.498;18.206;2023-04-27T08:20:58;99625.52;;;19.49;65.02
34103;BME280;20381;54.498;18.206;2023-04-27T08:23:29;99620.45;;;20.57;61.81
34103;BME280;20381;54.498;18.206;2023-04-27T08:25:57;99613.91;;;21.23;62.21
34103;BME280;20381;54.498;18.206;2023-04-27T08:28:24;99620.06;;;21.57;63.95
34103;BME280;20381;54.498;18.206;2023-04-27T08:30:50;99612.58;;;21.98;62.82
34103;BME280;20381;54.498;18.206;2023-04-27T08:33:18;99614.06;;;22.38;60.65
34103;BME280;20381;54.498;18.206;2023-04-27T08:35:44;99623.39;;;22.24;59.25
34103;BME280;20381;54.498;18.206;2023-04-27T08:38:11;99620.02;;;22.08;58.64
34103;BME280;20381;54.498;18.206;2023-04-27T08:40:42;99651.19;;;20.79;44.41
34103;BME280;20381;54.498;18.206;2023-04-27T08:43:08;99670.91;;;18.32;51.60
34103;BME280;20381;54.498;18.206;2023-04-27T08:45:35;99690.03;;;16.31;53.85
34103;BME280;20381;54.498;18.206;2023-04-27T08:48:02;99708.89;;;14.83;53.67
34103;BME280;20381;54.498;18.206;2023-04-27T08:50:29;99703.13;;;13.64;55.52
34103;BME280;20381;54.498;18.206;2023-04-27T08:52:56;99688.58;;;12.68;54.72
34103;BME280;20381;54.498;18.206;2023-04-27T08:55:22;99689.27;;;12.08;56.00
34103;BME280;20381;54.498;18.206;2023-04-27T08:57:57;99687.30;;;12.05;56.94
34103;BME280;20381;54.498;18.206;2023-04-27T09:00:24;99684.02;;;12.95;57.99
34103;BME280;20381;54.498;18.206;2023-04-27T09:02:51;99677.83;;;14.55;58.04
34103;BME280;20381;54.498;18.206;2023-04-27T09:05:20;99674.91;;;16.09;57.56
34103;BME280;20381;54.498;18.206;2023-04-27T09:10:26;99664.45;;;18.02;57.17
34103;BME280;20381;54.498;18.206;2023-04-27T09:12:58;99667.19;;;18.78;55.33
34103;BME280;20381;54.498;18.206;2023-04-27T09:15:25;99668.21;;;18.92;54.60
34103;BME280;20381;54.498;18.206;2023-04-27T09:17:56;99666.95;;;18.32;53.43
34103;BME280;20381;54.498;18.206;2023-04-27T09:20:20;99667.39;;;17.47;52.21
34103;BME280;20381;54.498;18.206;2023-04-27T09:22:51;99666.41;;;16.90;53.79
34103;BME280;20381;54.498;18.206;2023-04-27T09:25:28;99661.30;;;16.15;52.61
34103;BME280;20381;54.498;18.206;2023-04-27T09:28:00;99667.94;;;15.38;53.24
34103;BME280;20381;54.498;18.206;2023-04-27T09:30:28;99668.91;;;14.97;52.54
34103;BME280;20381;54.498;18.206;2023-04-27T09:32:59;99665.58;;;14.34;52.36
34103;BME280;20381;54.498;18.206;2023-04-27T09:35:33;99668.42;;;14.02;53.26
34103;BME280;20381;54.498;18.206;2023-04-27T09:37:59;99669.00;;;13.93;52.72
34103;BME280;20381;54.498;18.206;2023-04-27T09:40:27;99669.80;;;14.22;54.18
34103;BME280;20381;54.498;18.206;2023-04-27T09:42:59;99663.72;;;16.00;56.07
34103;BME280;20381;54.498;18.206;2023-04-27T09:45:26;99652.34;;;18.54;55.60
34103;BME280;20381;54.498;18.206;2023-04-27T09:47:53;99647.53;;;20.61;54.79
34103;BME280;20381;54.498;18.206;2023-04-27T09:50:21;99647.54;;;22.45;54.62
34103;BME280;20381;54.498;18.206;2023-04-27T09:52:48;99647.86;;;23.96;52.63
34103;BME280;20381;54.498;18.206;2023-04-27T09:55:19;99634.72;;;24.61;50.12
34103;BME280;20381;54.498;18.206;2023-04-27T10:06:20;99651.66;;;21.51;47.54
34103;BME280;20381;54.498;18.206;2023-04-27T10:08:37;99673.65;;;19.12;45.81
34103;BME280;20381;54.498;18.206;2023-04-27T10:11:13;99669.52;;;17.36;46.26
34103;BME280;20381;54.498;18.206;2023-04-27T10:13:51;99677.01;;;16.77;46.52
34103;BME280;20381;54.498;18.206;2023-04-27T10:16:19;99671.75;;;18.27;49.16
34103;BME280;20381;54.498;18.206;2023-04-27T10:18:55;99652.49;;;19.84;45.61
34103;BME280;20381;54.498;18.206;2023-04-27T10:21:29;99655.55;;;19.59;45.57
34103;BME280;20381;54.498;18.206;2023-04-27T10:23:53;99653.00;;;20.09;46.49
34103;BME280;20381;54.498;18.206;2023-04-27T10:26:24;99639.12;;;21.14;47.17
34103;BME280;20381;54.498;18.206;2023-04-27T10:29:06;99646.92;;;22.33;44.88
34103;BME280;20381;54.498;18.206;2023-04-27T10:31:42;99641.47;;;24.23;45.88
34103;BME280;20381;54.498;18.206;2023-04-27T10:34:08;99623.25;;;25.78;42.88
34103;BME280;20381;54.498;18.206;2023-04-27T10:36:40;99642.30;;;26.49;44.36
34103;BME280;20381;54.498;18.206;2023-04-27T10:39:21;99633.38;;;27.60;42.23
34103;BME280;20381;54.498;18.206;2023-04-27T10:41:54;99629.17;;;28.17;42.69
34103;BME280;20381;54.498;18.206;2023-04-27T10:44:26;99632.75;;;29.42;41.75
34103;BME280;20381;54.498;18.206;2023-04-27T10:46:56;99632.56;;;30.02;42.07
34103;BME280;20381;54.498;18.206;2023-04-27T10:49:27;99631.91;;;31.46;42.75
34103;BME280;20381;54.498;18.206;2023-04-27T10:51:56;99626.21;;;33.20;42.27
34103;BME280;20381;54.498;18.206;2023-04-27T10:54:27;99632.03;;;33.42;37.50
34103;BME280;20381;54.498;18.206;2023-04-27T10:57:03;99632.44;;;34.01;39.10
34103;BME280;20381;54.498;18.206;2023-04-27T10:59:29;99632.23;;;33.84;37.83
34103;BME280;20381;54.498;18.206;2023-04-27T11:01:56;99642.55;;;32.66;34.79
34103;BME280;20381;54.498;18.206;2023-04-27T11:04:22;99645.54;;;30.71;34.28
34103;BME280;20381;54.498;18.206;2023-04-27T11:06:48;99642.57;;;30.15;32.73
34103;BME280;20381;54.498;18.206;2023-04-27T11:09:26;99649.16;;;29.82;30.66
34103;BME280;20381;54.498;18.206;2023-04-27T11:11:52;99647.95;;;29.91;32.64
34103;BME280;20381;54.498;18.206;2023-04-27T11:14:19;99646.22;;;30.42;31.29
34103;BME280;20381;54.498;18.206;2023-04-27T11:16:49;99653.28;;;31.01;32.51
34103;BME280;20381;54.498;18.206;2023-04-27T11:19:16;99665.30;;;31.44;31.93
34103;BME280;20381;54.498;18.206;2023-04-27T11:21:42;99654.89;;;31.68;29.60
34103;BME280;20381;54.498;18.206;2023-04-27T11:24:11;99648.61;;;31.81;26.60
34103;BME280;20381;54.498;18.206;2023-04-27T11:26:38;99651.29;;;31.52;29.15
34103;BME280;20381;54.498;18.206;2023-04-27T11:29:06;99642.89;;;31.24;29.38
34103;BME280;20381;54.498;18.206;2023-04-27T11:31:40;99660.53;;;30.01;28.25
34103;BME280;20381;54.498;18.206;2023-04-27T11:34:08;99674.66;;;27.55;27.15
34103;BME280;20381;54.498;18.206;2023-04-27T11:36:37;99675.52;;;26.05;27.70
34103;BME280;20381;54.498;18.206;2023-04-27T11:39:06;99680.68;;;24.39;26.73
34103;BME280;20381;54.498;18.206;2023-04-27T11:41:38;99685.23;;;22.72;27.40
34103;BME280;20381;54.498;18.206;2023-04-27T11:44:09;99683.75;;;21.34;27.19
34103;BME280;20381;54.498;18.206;2023-04-27T11:46:37;99688.30;;;20.44;27.60
34103;BME280;20381;54.498;18.206;2023-04-27T11:49:05;99688.71;;;20.55;27.57
34103;BME280;20381;54.498;18.206;2023-04-27T11:51:33;99690.92;;;20.85;27.14
34103;BME280;20381;54.498;18.206;2023-04-27T11:54:03;99691.45;;;21.37;27.56
34103;BME280;20381;54.498;18.206;2023-04-27T11:56:38;99692.92;;;21.92;27.27
34103;BME280;20381;54.498;18.206;2023-04-27T11:59:02;99688.02;;;21.50;26.88
34103;BME280;20381;54.498;18.206;2023-04-27T12:01:32;99696.28;;;21.08;27.12
34103;BME280;20381;54.498;18.206;2023-04-27T12:04:00;99691.48;;;20.98;26.49
34103;BME280;20381;54.498;18.206;2023-04-27T12:06:30;99700.05;;;20.86;27.67
34103;BME280;20381;54.498;18.206;2023-04-27T12:08:59;99700.29;;;21.37;27.18
34103;BME280;20381;54.498;18.206;2023-04-27T12:11:26;99698.87;;;21.14;27.02
34103;BME280;20381;54.498;18.206;2023-04-27T12:13:54;99708.19;;;20.34;26.88
34103;BME280;20381;54.498;18.206;2023-04-27T12:16:21;99709.64;;;19.35;26.79
34103;BME280;20381;54.498;18.206;2023-04-27T12:18:50;99702.15;;;18.27;27.02
34103;BME280;20381;54.498;18.206;2023-04-27T12:21:16;99711.17;;;17.38;27.23
34103;BME280;20381;54.498;18.206;2023-04-27T12:23:43;99715.38;;;16.63;27.66
34103;BME280;20381;54.498;18.206;2023-04-27T12:26:10;99707.53;;;16.01;27.47
34103;BME280;20381;54.498;18.206;2023-04-27T12:28:36;99709.55;;;15.39;27.84
34103;BME280;20381;54.498;18.206;2023-04-27T12:31:04;99725.91;;;14.70;28.10
34103;BME280;20381;54.498;18.206;2023-04-27T12:33:30;99733.13;;;14.18;28.12
34103;BME280;20381;54.498;18.206;2023-04-27T12:35:57;99734.52;;;13.80;28.40
34103;BME280;20381;54.498;18.206;2023-04-27T12:38:23;99737.23;;;13.72;28.72
34103;BME280;20381;54.498;18.206;2023-04-27T12:40:50;99738.49;;;13.43;28.93
34103;BME280;20381;54.498;18.206;2023-04-27T12:43:16;99745.12;;;13.18;28.84
34103;BME280;20381;54.498;18.206;2023-04-27T12:45:43;99739.01;;;12.88;28.86
34103;BME280;20381;54.498;18.206;2023-04-27T12:48:10;99748.68;;;12.56;29.19
34103;BME280;20381;54.498;18.206;2023-04-27T12:50:36;99749.00;;;12.34;30.60
34103;BME280;20381;54.498;18.206;2023-04-27T12:53:05;99749.23;;;12.13;30.46
34103;BME280;20381;54.498;18.206;2023-04-27T12:55:31;99757.71;;;12.01;30.31
34103;BME280;20381;54.498;18.206;2023-04-27T12:57:58;99751.29;;;11.91;31.40
34103;BME280;20381;54.498;18.206;2023-04-27T13:00:24;99751.29;;;11.91;31.42
34103;BME280;20381;54.498;18.206;2023-04-27T13:02:51;99757.27;;;11.75;30.97
34103;BME280;20381;54.498;18.206;2023-04-27T13:05:17;99747.82;;;11.64;31.71
34103;BME280;20381;54.498;18.206;2023-04-27T13:07:44;99759.28;;;11.53;31.30